Time;durP1;ratioP1;P1;durP2;ratioP2;P2;SDS_P1;SDS_P2;PMS_P1;PMS_P2;Temp;Humidity;BMP_temperature;BMP_pressure;BME280_temperature;BME280_humidity;BME280_pressure;Samples;Min_cycle;Max_cycle;Signal;HPM_P1;HPM_P2
2021/07/28 00:01:53;;;;;;;;;;;;;;;17.99;100.00;98004.66;5076332;28;20555;-80
2021/07/28 00:04:20;;;;;;;;;;;;;;;18.62;100.00;98006.28;5075972;28;19931;-80
2021/07/28 00:06:47;;;;;;;;;;;;;;;18.48;100.00;97995.88;5075912;28;19924;-80
2021/07/28 00:09:14;;;;;;;;;;;;;;;18.27;100.00;97991.56;5093597;28;19932;-80
2021/07/28 00:11:41;;;;;;;;;;;;;;;18.33;100.00;97995.22;5075406;28;19930;-80
2021/07/28 00:14:08;;;;;;;;;;;;;;;17.74;100.00;97994.13;5075772;28;19931;-80
2021/07/28 00:16:36;;;;;;;;;;;;;;;17.76;100.00;98003.66;5093750;28;19924;-80
2021/07/28 00:24:15;;;;;;;;;;;;;;;18.11;100.00;97989.38;5093636;28;19928;-80
2021/07/28 00:26:42;;;;;;;;;;;;;;;18.35;100.00;97998.34;5075866;28;19928;-79
2021/07/28 00:29:09;;;;;;;;;;;;;;;18.06;100.00;97990.09;5075663;28;20019;-80
2021/07/28 00:31:37;;;;;;;;;;;;;;;18.52;100.00;97987.19;5058820;28;19931;-80
2021/07/28 00:34:04;;;;;;;;;;;;;;;18.64;100.00;97981.13;5093602;28;19928;-80
2021/07/28 00:36:30;;;;;;;;;;;;;;;18.85;100.00;97978.94;5093548;28;19925;-80
2021/07/28 00:38:57;;;;;;;;;;;;;;;19.00;100.00;97977.47;5075153;28;20363;-80
2021/07/28 00:41:24;;;;;;;;;;;;;;;19.04;100.00;97974.41;5075796;28;20382;-80
2021/07/28 00:43:52;;;;;;;;;;;;;;;18.92;100.00;97967.91;5093305;28;19924;-79
2021/07/28 00:46:18;;;;;;;;;;;;;;;19.10;100.00;97967.50;5093349;28;20015;-79
2021/07/28 00:48:46;;;;;;;;;;;;;;;18.81;100.00;97961.41;5058699;28;20006;-79
2021/07/28 00:51:13;;;;;;;;;;;;;;;18.95;100.00;97966.91;5054923;28;19936;-80
2021/07/28 00:53:40;;;;;;;;;;;;;;;18.97;100.00;97967.19;5075134;28;19930;-79
2021/07/28 00:56:07;;;;;;;;;;;;;;;18.74;100.00;97962.66;5093020;28;19924;-79
2021/07/28 00:58:34;;;;;;;;;;;;;;;18.98;100.00;97965.88;5075439;28;19935;-80
2021/07/28 01:01:01;;;;;;;;;;;;;;;18.96;100.00;97957.13;5093271;28;19997;-80
2021/07/28 01:03:28;;;;;;;;;;;;;;;18.88;100.00;97958.09;5058720;28;19928;-80
2021/07/28 01:05:56;;;;;;;;;;;;;;;18.74;100.00;97954.16;5054787;28;19925;-80
2021/07/28 01:08:23;;;;;;;;;;;;;;;18.95;100.00;97947.09;5074675;28;19932;-80
2021/07/28 01:10:51;;;;;;;;;;;;;;;18.94;100.00;97937.06;5074869;28;20398;-80
2021/07/28 01:13:26;;;;;;;;;;;;;;;18.80;100.00;97943.66;5093057;28;19939;-80
2021/07/28 01:16:02;;;;;;;;;;;;;;;18.69;100.00;97940.00;5093302;28;19936;-80
2021/07/28 01:18:30;;;;;;;;;;;;;;;19.01;100.00;97930.91;5093574;28;20009;-80
2021/07/28 01:20:57;;;;;;;;;;;;;;;19.03;100.00;97927.56;5111974;28;19934;-80
2021/07/28 01:23:25;;;;;;;;;;;;;;;19.12;100.00;97924.53;5094949;28;20018;-80
2021/07/28 01:25:53;;;;;;;;;;;;;;;19.07;100.00;97930.91;5078483;28;19928;-80
2021/07/28 01:28:22;;;;;;;;;;;;;;;19.08;100.00;97930.44;5096791;28;19924;-80
2021/07/28 01:30:59;;;;;;;;;;;;;;;19.09;100.00;97925.53;5096541;28;19924;-80
2021/07/28 01:33:27;;;;;;;;;;;;;;;19.11;100.00;97923.78;5095354;28;19924;-80
2021/07/28 01:35:57;;;;;;;;;;;;;;;19.09;100.00;97919.88;5083251;28;20383;-80
2021/07/28 01:38:27;;;;;;;;;;;;;;;19.21;100.00;97922.25;5088341;28;19924;-80
2021/07/28 01:40:55;;;;;;;;;;;;;;;19.12;100.00;97928.13;5096285;28;19924;-80
2021/07/28 01:43:23;;;;;;;;;;;;;;;18.88;100.00;97930.59;5078352;28;20400;-80
2021/07/28 01:45:50;;;;;;;;;;;;;;;19.02;100.00;97926.78;5059409;28;19956;-80
2021/07/28 01:48:17;;;;;;;;;;;;;;;18.89;100.00;97932.13;5096658;28;19924;-79
2021/07/28 01:50:47;;;;;;;;;;;;;;;18.75;100.00;97935.16;5077956;28;20260;-80
2021/07/28 01:53:15;;;;;;;;;;;;;;;18.34;100.00;97933.78;5089904;28;20274;-79
2021/07/28 01:55:43;;;;;;;;;;;;;;;18.23;100.00;97934.47;5073806;28;19928;-80
2021/07/28 01:58:10;;;;;;;;;;;;;;;18.18;100.00;97938.03;5096098;28;19924;-79
2021/07/28 02:00:38;;;;;;;;;;;;;;;18.27;100.00;97935.03;5094842;28;19935;-79
2021/07/28 02:03:05;;;;;;;;;;;;;;;18.32;100.00;97934.28;5094699;28;19924;-80
2021/07/28 02:05:35;;;;;;;;;;;;;;;18.18;100.00;97946.50;5095584;28;19924;-80
2021/07/28 02:08:06;;;;;;;;;;;;;;;18.33;100.00;97935.84;5096016;28;19935;-79
2021/07/28 02:10:38;;;;;;;;;;;;;;;18.37;100.00;97933.59;5080256;28;19932;-80
2021/07/28 02:13:05;;;;;;;;;;;;;;;18.38;100.00;97934.34;5111655;28;19924;-80
2021/07/28 02:15:33;;;;;;;;;;;;;;;18.27;100.00;97935.03;5063493;28;19942;-80
2021/07/28 02:19:09;;;;;;;;;;;;;;;18.25;100.00;97931.16;5073676;27;2059333;-79
2021/07/28 02:21:36;;;;;;;;;;;;;;;18.17;100.00;97930.84;5113883;28;19931;-80
2021/07/28 02:24:03;;;;;;;;;;;;;;;18.07;100.00;97920.97;5132035;28;19927;-79
2021/07/28 02:26:30;;;;;;;;;;;;;;;18.11;100.00;97927.19;5113957;28;20266;-79
2021/07/28 02:28:57;;;;;;;;;;;;;;;18.17;100.00;97925.19;5131821;28;19923;-79
2021/07/28 02:31:24;;;;;;;;;;;;;;;17.77;100.00;97919.66;5131932;28;19931;-79
2021/07/28 02:33:52;;;;;;;;;;;;;;;17.73;100.00;97924.78;5131612;28;19928;-79
2021/07/28 02:36:19;;;;;;;;;;;;;;;17.92;100.00;97925.97;5096664;28;19931;-79
2021/07/28 02:38:47;;;;;;;;;;;;;;;18.05;100.00;97912.25;5131770;28;19924;-80
2021/07/28 02:41:14;;;;;;;;;;;;;;;18.08;100.00;97907.63;5131523;28;19930;-80
2021/07/28 02:43:40;;;;;;;;;;;;;;;17.81;100.00;97906.13;5096508;28;20305;-80
2021/07/28 02:46:08;;;;;;;;;;;;;;;17.73;100.00;97913.47;5117224;28;19948;-79
2021/07/28 02:48:35;;;;;;;;;;;;;;;17.68;100.00;97917.00;5096143;28;19931;-80
2021/07/28 02:51:02;;;;;;;;;;;;;;;17.79;100.00;97914.31;5113299;28;19936;-80
2021/07/28 02:53:29;;;;;;;;;;;;;;;17.77;100.00;97909.16;5113299;28;20441;-79
2021/07/28 02:55:57;;;;;;;;;;;;;;;17.79;100.00;97900.19;5096396;28;19924;-79
2021/07/28 02:58:24;;;;;;;;;;;;;;;17.91;100.00;97908.25;5103107;28;19923;-80
2021/07/28 03:00:52;;;;;;;;;;;;;;;17.74;100.00;97900.91;5131259;28;19924;-79
2021/07/28 03:03:19;;;;;;;;;;;;;;;17.87;100.00;97898.47;5130830;28;19923;-80
2021/07/28 03:05:46;;;;;;;;;;;;;;;17.94;100.00;97898.00;5131285;28;19924;-80
2021/07/28 03:08:13;;;;;;;;;;;;;;;17.84;100.00;97900.22;5084353;28;19924;-80
2021/07/28 03:10:40;;;;;;;;;;;;;;;18.14;100.00;97891.47;5131099;28;20343;-80
2021/07/28 03:13:07;;;;;;;;;;;;;;;18.08;100.00;97882.19;5112769;28;20301;-80
2021/07/28 03:15:34;;;;;;;;;;;;;;;18.08;100.00;97882.97;5131084;28;19977;-80
2021/07/28 03:18:02;;;;;;;;;;;;;;;17.95;100.00;97874.91;5130055;28;19935;-79
2021/07/28 03:20:29;;;;;;;;;;;;;;;18.04;100.00;97882.41;5098387;28;19969;-80
2021/07/28 03:22:56;;;;;;;;;;;;;;;17.98;100.00;97885.19;5112682;28;20354;-80
2021/07/28 03:25:23;;;;;;;;;;;;;;;18.18;100.00;97873.00;5109177;28;19924;-79
2021/07/28 03:27:51;;;;;;;;;;;;;;;18.31;100.00;97873.34;5120012;28;19931;-79
2021/07/28 03:30:18;;;;;;;;;;;;;;;18.33;100.00;97873.63;5118375;28;19924;-80
2021/07/28 03:32:46;;;;;;;;;;;;;;;18.26;100.00;97874.09;5065515;28;19928;-80
2021/07/28 03:35:15;;;;;;;;;;;;;;;18.06;100.00;97877.03;5084326;28;19924;-80
2021/07/28 03:37:42;;;;;;;;;;;;;;;17.85;100.00;97864.28;5117148;28;19931;-79
2021/07/28 03:40:10;;;;;;;;;;;;;;;17.62;100.00;97865.34;5098653;28;20286;-79
2021/07/28 03:42:37;;;;;;;;;;;;;;;17.43;100.00;97867.72;5116676;28;20367;-79
2021/07/28 03:45:05;;;;;;;;;;;;;;;17.32;100.00;97870.41;5116532;28;20064;-79
2021/07/28 03:47:31;;;;;;;;;;;;;;;17.40;100.00;97867.94;5113139;28;19947;-79
2021/07/28 03:49:59;;;;;;;;;;;;;;;17.44;100.00;97862.84;5088091;28;19973;-79
2021/07/28 03:52:27;;;;;;;;;;;;;;;17.35;100.00;97872.25;5098201;28;20282;-80
2021/07/28 03:54:54;;;;;;;;;;;;;;;17.37;100.00;97880.97;5116624;28;19924;-79
2021/07/28 03:57:21;;;;;;;;;;;;;;;17.12;100.00;97875.31;5097803;28;20248;-79
2021/07/28 03:59:48;;;;;;;;;;;;;;;17.03;100.00;97881.09;5068305;28;19959;-79
2021/07/28 04:02:15;;;;;;;;;;;;;;;16.68;100.00;97874.75;5104947;28;19928;-79
2021/07/28 04:04:42;;;;;;;;;;;;;;;16.82;100.00;97885.19;5116300;28;19923;-79
2021/07/28 04:07:09;;;;;;;;;;;;;;;16.63;100.00;97869.81;5116324;28;19939;-79
2021/07/28 04:09:36;;;;;;;;;;;;;;;16.67;100.00;97873.19;5116367;28;19924;-79
2021/07/28 04:12:03;;;;;;;;;;;;;;;16.65;100.00;97865.22;5097927;28;20400;-80
2021/07/28 04:14:30;;;;;;;;;;;;;;;16.44;100.00;97872.13;5081270;28;20310;-79
2021/07/28 04:16:57;;;;;;;;;;;;;;;16.54;100.00;97875.59;5094121;28;20264;-79
2021/07/28 04:19:24;;;;;;;;;;;;;;;16.55;100.00;97882.78;5087646;28;20327;-79
2021/07/28 04:21:51;;;;;;;;;;;;;;;16.87;100.00;97888.09;5115913;28;20286;-79
2021/07/28 04:24:18;;;;;;;;;;;;;;;16.82;100.00;97890.84;5115976;28;20394;-79
2021/07/28 04:26:45;;;;;;;;;;;;;;;17.08;100.00;97886.03;5097748;28;20271;-79
2021/07/28 04:29:12;;;;;;;;;;;;;;;16.48;100.00;97888.84;5115861;28;20015;-79
2021/07/28 04:31:39;;;;;;;;;;;;;;;16.11;100.00;97897.72;5097876;28;20022;-79
2021/07/28 04:34:07;;;;;;;;;;;;;;;16.14;100.00;97901.63;5083465;28;19928;-79
2021/07/28 04:36:34;;;;;;;;;;;;;;;15.99;100.00;97901.63;5086295;28;19924;-79
2021/07/28 04:39:03;;;;;;;;;;;;;;;16.08;100.00;97895.88;5098866;28;19935;-79
2021/07/28 04:41:30;;;;;;;;;;;;;;;16.23;100.00;97902.28;5114580;28;19977;-79
2021/07/28 04:43:57;;;;;;;;;;;;;;;15.85;100.00;97905.25;5100773;28;20267;-79
2021/07/28 04:46:24;;;;;;;;;;;;;;;15.80;100.00;97903.09;5056962;28;20345;-79
2021/07/28 04:48:51;;;;;;;;;;;;;;;15.47;100.00;97910.97;5057452;28;20298;-79
2021/07/28 04:51:18;;;;;;;;;;;;;;;15.53;100.00;97906.22;5115326;28;19959;-79
2021/07/28 04:53:45;;;;;;;;;;;;;;;15.56;100.00;97899.59;5096988;28;20274;-79
2021/07/28 04:56:12;;;;;;;;;;;;;;;15.20;100.00;97899.94;5096005;28;19925;-79
2021/07/28 04:58:39;;;;;;;;;;;;;;;15.03;100.00;97912.88;5106009;28;20282;-79
2021/07/28 05:01:06;;;;;;;;;;;;;;;14.94;100.00;97907.31;5115218;28;20406;-79
2021/07/28 05:03:34;;;;;;;;;;;;;;;15.03;100.00;97921.31;5115134;28;19924;-79
2021/07/28 05:06:01;;;;;;;;;;;;;;;15.25;100.00;97924.56;5115243;28;19934;-79
2021/07/28 05:08:28;;;;;;;;;;;;;;;15.52;100.00;97915.94;5114976;28;20358;-79
2021/07/28 05:10:57;;;;;;;;;;;;;;;15.40;100.00;97914.16;5097399;28;19924;-79
2021/07/28 05:13:24;;;;;;;;;;;;;;;15.54;100.00;97913.38;5114735;28;20290;-79
2021/07/28 05:15:54;;;;;;;;;;;;;;;15.50;100.00;97893.09;5096945;28;19976;-79
2021/07/28 05:18:21;;;;;;;;;;;;;;;15.59;100.00;97890.19;5061726;28;20332;-79
2021/07/28 05:20:48;;;;;;;;;;;;;;;15.71;100.00;97882.72;5102040;28;20431;-79
2021/07/28 05:23:15;;;;;;;;;;;;;;;15.72;100.00;97873.78;5063196;28;19923;-79
2021/07/28 05:25:42;;;;;;;;;;;;;;;15.90;100.00;97884.84;5114525;28;19980;-79
2021/07/28 05:28:09;;;;;;;;;;;;;;;16.00;100.00;97883.47;5079584;28;20497;-79
2021/07/28 05:30:37;;;;;;;;;;;;;;;15.98;100.00;97886.00;5114237;28;20416;-79
2021/07/28 05:33:04;;;;;;;;;;;;;;;16.13;100.00;97889.56;5114549;28;19935;-79
2021/07/28 05:35:31;;;;;;;;;;;;;;;15.94;100.00;97893.88;5114557;28;19923;-79
2021/07/28 05:37:58;;;;;;;;;;;;;;;16.33;100.00;97888.09;5096253;28;19923;-79
2021/07/28 05:40:25;;;;;;;;;;;;;;;16.32;100.00;97886.50;5114261;28;19924;-79
2021/07/28 05:42:52;;;;;;;;;;;;;;;16.22;100.00;97886.63;5114242;28;19923;-79
2021/07/28 05:45:19;;;;;;;;;;;;;;;16.24;100.00;97886.94;5114385;28;19924;-79
2021/07/28 05:47:46;;;;;;;;;;;;;;;16.19;100.00;97884.03;5114442;28;19930;-80
2021/07/28 05:50:14;;;;;;;;;;;;;;;16.23;100.00;97885.38;5102625;28;19935;-79
2021/07/28 05:52:42;;;;;;;;;;;;;;;16.32;100.00;97873.19;5093971;28;20263;-79
2021/07/28 05:55:09;;;;;;;;;;;;;;;16.27;100.00;97879.53;5096159;28;20450;-79
2021/07/28 05:57:36;;;;;;;;;;;;;;;16.32;100.00;97883.69;5114011;28;19931;-79
2021/07/28 06:00:04;;;;;;;;;;;;;;;16.11;100.00;97888.50;5109987;28;19927;-79
2021/07/28 06:02:31;;;;;;;;;;;;;;;16.31;100.00;97896.25;5096091;28;19974;-79
2021/07/28 06:04:58;;;;;;;;;;;;;;;16.27;100.00;97875.94;5095861;28;20371;-79
2021/07/28 06:07:25;;;;;;;;;;;;;;;16.38;100.00;97884.56;5113869;28;19924;-79
2021/07/28 06:09:52;;;;;;;;;;;;;;;15.86;100.00;97877.84;5114043;28;19923;-79
2021/07/28 06:12:20;;;;;;;;;;;;;;;15.98;100.00;97886.00;5096166;28;19938;-79
2021/07/28 06:14:47;;;;;;;;;;;;;;;16.32;100.00;97890.13;5114292;28;19924;-79
2021/07/28 06:17:14;;;;;;;;;;;;;;;16.18;100.00;97888.88;5067811;28;19924;-79
2021/07/28 06:19:42;;;;;;;;;;;;;;;15.97;100.00;97887.28;5114251;28;19930;-79
2021/07/28 06:22:10;;;;;;;;;;;;;;;16.34;100.00;97883.97;5096216;28;20014;-79
2021/07/28 06:24:37;;;;;;;;;;;;;;;16.45;100.00;97889.81;5114038;28;19931;-79
2021/07/28 06:27:04;;;;;;;;;;;;;;;15.99;100.00;97884.72;5113863;28;19924;-79
2021/07/28 06:29:31;;;;;;;;;;;;;;;16.34;100.00;97873.50;5114107;28;20026;-79
2021/07/28 06:32:01;;;;;;;;;;;;;;;16.17;100.00;97869.66;5099791;28;19932;-79
2021/07/28 06:34:29;;;;;;;;;;;;;;;16.52;100.00;97861.22;5106294;28;19931;-80
2021/07/28 06:36:55;;;;;;;;;;;;;;;16.41;100.00;97875.91;5079655;28;19931;-80
2021/07/28 06:39:22;;;;;;;;;;;;;;;16.48;100.00;97872.69;5113637;28;20278;-79
2021/07/28 06:41:49;;;;;;;;;;;;;;;16.37;100.00;97868.91;5114053;28;19977;-80
2021/07/28 06:44:16;;;;;;;;;;;;;;;16.41;100.00;97870.25;5095931;28;19930;-80
2021/07/28 06:46:44;;;;;;;;;;;;;;;16.76;100.00;97873.06;5103121;28;19981;-80
2021/07/28 06:49:11;;;;;;;;;;;;;;;16.53;100.00;97868.38;5064726;28;19923;-80
2021/07/28 06:51:38;;;;;;;;;;;;;;;16.61;100.00;97873.13;5096013;28;20278;-80
2021/07/28 06:54:06;;;;;;;;;;;;;;;16.21;100.00;97868.19;5113664;28;20405;-80
2021/07/28 06:56:33;;;;;;;;;;;;;;;16.53;100.00;97868.38;5114144;28;19924;-79
2021/07/28 06:58:59;;;;;;;;;;;;;;;16.32;100.00;97878.06;5085660;28;19951;-80
2021/07/28 07:01:26;;;;;;;;;;;;;;;16.52;100.00;97876.09;5073723;28;19928;-79
2021/07/28 07:03:53;;;;;;;;;;;;;;;16.21;100.00;97870.22;5084205;28;20286;-79
2021/07/28 07:06:23;;;;;;;;;;;;;;;16.10;100.00;97865.19;5085464;28;20307;-79
2021/07/28 07:08:50;;;;;;;;;;;;;;;16.22;100.00;97883.81;5078591;28;20252;-78
2021/07/28 07:11:17;;;;;;;;;;;;;;;16.41;100.00;97875.09;5097271;28;19989;-78
2021/07/28 07:13:44;;;;;;;;;;;;;;;16.72;100.00;97892.25;5082375;28;20430;-78
2021/07/28 07:16:14;;;;;;;;;;;;;;;16.88;100.00;97883.22;5065280;28;19924;-78
2021/07/28 07:18:42;;;;;;;;;;;;;;;16.90;100.00;97880.69;5102943;28;19928;-78
2021/07/28 07:21:09;;;;;;;;;;;;;;;16.79;100.00;97880.53;5081827;28;20304;-79
2021/07/28 07:23:36;;;;;;;;;;;;;;;16.84;100.00;97882.66;5080538;28;19924;-79
2021/07/28 07:26:03;;;;;;;;;;;;;;;17.29;100.00;97879.88;5070694;28;20138;-79
2021/07/28 07:28:30;;;;;;;;;;;;;;;17.22;100.00;97885.94;5076135;28;19923;-80
2021/07/28 07:30:57;;;;;;;;;;;;;;;17.41;100.00;97889.22;5095185;28;20384;-79
2021/07/28 07:33:40;;;;;;;;;;;;;;;17.34;100.00;97881.22;5108444;28;19924;-79
2021/07/28 07:36:14;;;;;;;;;;;;;;;17.35;100.00;97877.09;5098823;28;19924;-79
2021/07/28 07:38:41;;;;;;;;;;;;;;;17.18;100.00;97879.75;5116438;28;19924;-79
2021/07/28 07:41:10;;;;;;;;;;;;;;;17.20;100.00;97882.06;5088704;28;20374;-79
2021/07/28 07:43:37;;;;;;;;;;;;;;;17.45;100.00;97879.31;5081084;28;20018;-79
2021/07/28 07:46:04;;;;;;;;;;;;;;;17.38;100.00;97888.19;5099601;28;19928;-79
2021/07/28 07:48:31;;;;;;;;;;;;;;;17.39;100.00;97886.13;5098255;28;19950;-79
2021/07/28 07:50:58;;;;;;;;;;;;;;;17.99;100.00;97877.50;5098214;28;19927;-80
2021/07/28 07:53:26;;;;;;;;;;;;;;;18.03;100.00;97869.56;5089447;28;20397;-79
2021/07/28 07:56:19;;;;;;;;;;;;;;;18.32;100.00;97865.66;5108562;28;20275;-79
2021/07/28 07:58:46;;;;;;;;;;;;;;;17.98;100.00;97862.59;5106781;28;19970;-78
2021/07/28 08:01:13;;;;;;;;;;;;;;;17.95;100.00;97855.13;5115868;28;20002;-76
2021/07/28 08:03:41;;;;;;;;;;;;;;;18.29;100.00;97858.97;5115739;28;19924;-76
2021/07/28 08:06:09;;;;;;;;;;;;;;;18.27;100.00;97857.91;5116322;28;19971;-81
2021/07/28 08:08:41;;;;;;;;;;;;;;;18.38;100.00;97867.28;5084107;28;19924;-79
2021/07/28 08:11:11;;;;;;;;;;;;;;;18.13;100.00;97862.44;5094718;28;19925;-79
2021/07/28 08:13:39;;;;;;;;;;;;;;;17.61;100.00;97861.75;5096363;28;19924;-79
2021/07/28 08:16:13;;;;;;;;;;;;;;;17.67;100.00;97873.09;5089118;28;19924;-79
2021/07/28 08:18:40;;;;;;;;;;;;;;;17.57;100.00;97868.88;5100668;28;20317;-79
2021/07/28 08:21:09;;;;;;;;;;;;;;;17.69;100.00;97876.22;5096854;28;20039;-79
2021/07/28 08:23:37;;;;;;;;;;;;;;;17.68;100.00;97878.25;5099751;28;19931;-79
2021/07/28 08:26:04;;;;;;;;;;;;;;;17.57;100.00;97877.34;5075289;28;20264;-80
2021/07/28 08:28:31;;;;;;;;;;;;;;;17.48;100.00;97875.47;5078970;28;20251;-79
2021/07/28 08:30:59;;;;;;;;;;;;;;;17.47;100.00;97867.50;5077870;28;19924;-78
2021/07/28 08:33:26;;;;;;;;;;;;;;;17.51;100.00;97865.22;5076144;28;19930;-80
2021/07/28 08:36:13;;;;;;;;;;;;;;;17.52;100.00;97875.28;5082988;28;20015;-80
2021/07/28 08:38:40;;;;;;;;;;;;;;;17.83;100.00;97861.94;5079786;28;19947;-79
2021/07/28 08:41:09;;;;;;;;;;;;;;;18.21;100.00;97874.06;5099009;28;19986;-79
2021/07/28 08:43:39;;;;;;;;;;;;;;;18.72;100.00;97863.34;5096350;28;19946;-80
2021/07/28 08:46:08;;;;;;;;;;;;;;;18.33;100.00;97858.72;5077539;28;19955;-79
2021/07/28 08:48:36;;;;;;;;;;;;;;;18.20;100.00;97858.38;5094414;28;20024;-79
2021/07/28 08:51:04;;;;;;;;;;;;;;;18.36;100.00;97855.66;5099293;28;19924;-79
2021/07/28 08:53:31;;;;;;;;;;;;;;;18.32;100.00;97845.88;5071783;28;19924;-76
2021/07/28 08:56:02;;;;;;;;;;;;;;;18.62;100.00;97864.84;5081721;28;19973;-76
2021/07/28 08:58:29;;;;;;;;;;;;;;;18.38;100.00;97838.22;5088296;28;20007;-75
2021/07/28 09:00:57;;;;;;;;;;;;;;;18.46;100.00;97834.44;5073405;28;19964;-76
2021/07/28 09:03:24;;;;;;;;;;;;;;;19.15;100.00;97839.34;5073425;28;19935;-77
2021/07/28 09:05:52;;;;;;;;;;;;;;;19.37;100.00;97838.69;5073574;28;19931;-76
2021/07/28 09:08:24;;;;;;;;;;;;;;;19.10;100.00;97836.50;5093942;28;19930;-76
2021/07/28 09:10:51;;;;;;;;;;;;;;;19.16;100.00;97832.41;5100971;28;20591;-77
2021/07/28 09:13:25;;;;;;;;;;;;;;;19.32;100.00;97836.59;5109061;28;20367;-77
2021/07/28 09:15:56;;;;;;;;;;;;;;;18.95;100.00;97835.91;5091208;28;20014;-76
2021/07/28 09:18:27;;;;;;;;;;;;;;;19.32;100.00;97840.22;5090653;28;19930;-75
2021/07/28 09:20:54;;;;;;;;;;;;;;;20.05;100.00;97818.34;5092685;28;19931;-76
2021/07/28 09:23:21;;;;;;;;;;;;;;;21.03;100.00;97819.41;5092603;28;19924;-75
2021/07/28 09:25:54;;;;;;;;;;;;;;;21.73;100.00;97804.53;5096275;28;19924;-75
2021/07/28 09:28:21;;;;;;;;;;;;;;;21.97;100.00;97813.13;5090849;28;19931;-77
2021/07/28 09:30:48;;;;;;;;;;;;;;;22.42;100.00;97805.72;5091097;28;19932;-77
2021/07/28 09:33:17;;;;;;;;;;;;;;;22.01;100.00;97803.00;5093333;28;19977;-78
2021/07/28 09:35:50;;;;;;;;;;;;;;;22.47;100.00;97802.03;5058432;28;19924;-77
2021/07/28 09:38:30;;;;;;;;;;;;;;;22.24;100.00;97798.66;5073855;28;20279;-76
2021/07/28 09:41:10;;;;;;;;;;;;;;;22.28;100.00;97801.22;5075287;28;19931;-76
2021/07/28 09:43:48;;;;;;;;;;;;;;;22.14;100.00;97788.16;5091380;28;19931;-75
2021/07/28 09:46:30;;;;;;;;;;;;;;;21.89;100.00;97795.88;5091805;28;19928;-74
2021/07/28 09:48:58;;;;;;;;;;;;;;;21.07;100.00;97789.47;5071375;28;20300;-77
2021/07/28 09:51:25;;;;;;;;;;;;;;;21.52;100.00;97789.97;5072196;28;20562;-75
2021/07/28 09:53:53;;;;;;;;;;;;;;;21.10;100.00;97787.63;5090354;28;19931;-75
2021/07/28 09:56:36;;;;;;;;;;;;;;;21.38;100.00;97785.41;5093045;28;19936;-76
2021/07/28 09:59:03;;;;;;;;;;;;;;;20.65;100.00;97781.38;5100456;28;19924;-77
2021/07/28 10:01:31;;;;;;;;;;;;;;;20.42;100.00;97779.13;5091884;28;20440;-78
2021/07/28 10:04:19;;;;;;;;;;;;;;;20.91;100.00;97790.28;5076281;28;19931;-76
2021/07/28 10:06:47;;;;;;;;;;;;;;;20.73;100.00;97779.53;5089644;28;20260;-77
2021/07/28 10:09:20;;;;;;;;;;;;;;;20.75;100.00;97787.53;5092154;28;20330;-79
2021/07/28 10:11:48;;;;;;;;;;;;;;;21.04;100.00;97772.69;5091717;28;19924;-78
2021/07/28 10:14:17;;;;;;;;;;;;;;;21.21;100.00;97767.69;5100401;28;19924;-79
2021/07/28 10:16:46;;;;;;;;;;;;;;;20.92;100.00;97762.66;5088986;28;19936;-77
2021/07/28 10:19:14;;;;;;;;;;;;;;;21.26;100.00;97761.97;5096240;28;20015;-76
2021/07/28 10:21:46;;;;;;;;;;;;;;;21.72;100.00;97758.25;5107445;28;19981;-75
2021/07/28 10:24:13;;;;;;;;;;;;;;;21.77;100.00;97756.69;5090926;28;20018;-75
2021/07/28 10:26:44;;;;;;;;;;;;;;;21.25;100.00;97748.28;5084899;28;19935;-78
2021/07/28 10:29:14;;;;;;;;;;;;;;;20.63;100.00;97749.91;5065798;28;20002;-77
2021/07/28 10:31:45;;;;;;;;;;;;;;;20.73;100.00;97754.00;5070301;28;19924;-77
2021/07/28 10:34:25;;;;;;;;;;;;;;;21.04;100.00;97749.97;5089525;28;19983;-74
2021/07/28 10:36:54;;;;;;;;;;;;;;;21.58;100.00;97750.91;5072947;28;19931;-80
2021/07/28 10:39:41;;;;;;;;;;;;;;;21.63;100.00;97752.91;5061183;28;19928;-77
2021/07/28 10:42:09;;;;;;;;;;;;;;;21.32;100.00;97747.75;5076818;28;19947;-80
2021/07/28 10:44:55;;;;;;;;;;;;;;;21.33;100.00;97740.75;5093356;28;20633;-79
2021/07/28 10:47:38;;;;;;;;;;;;;;;21.21;100.00;97753.47;5091421;28;19939;-75
2021/07/28 10:50:30;;;;;;;;;;;;;;;21.45;100.00;97745.03;5084912;28;19928;-78
2021/07/28 10:52:57;;;;;;;;;;;;;;;21.56;100.00;97736.44;5086918;28;20011;-78
2021/07/28 10:55:25;;;;;;;;;;;;;;;21.28;100.00;97727.38;5106437;28;20378;-78
2021/07/28 10:57:52;;;;;;;;;;;;;;;21.30;100.00;97736.13;5089652;28;20134;-77
2021/07/28 11:00:37;;;;;;;;;;;;;;;21.81;100.00;97732.38;5089416;28;19955;-78
2021/07/28 11:03:09;;;;;;;;;;;;;;;21.72;100.00;97720.56;5068905;28;19930;-78
2021/07/28 11:05:37;;;;;;;;;;;;;;;21.47;100.00;97714.03;5108427;28;19924;-78
2021/07/28 11:08:07;;;;;;;;;;;;;;;21.35;100.00;97732.47;5110476;28;19949;-79
2021/07/28 11:10:34;;;;;;;;;;;;;;;21.03;100.00;97731.41;5044447;28;20368;-78
2021/07/28 11:13:08;;;;;;;;;;;;;;;20.98;100.00;97746.38;5092940;28;19934;-77
2021/07/28 11:15:36;;;;;;;;;;;;;;;20.82;100.00;97738.72;5090488;28;19939;-77
2021/07/28 11:18:03;;;;;;;;;;;;;;;21.02;100.00;97724.19;5074258;28;20359;-74
2021/07/28 11:20:32;;;;;;;;;;;;;;;21.32;100.00;97719.31;5076585;28;19955;-74
2021/07/28 11:23:17;;;;;;;;;;;;;;;21.98;100.00;97713.06;5074142;28;20387;-75
2021/07/28 11:25:44;;;;;;;;;;;;;;;21.74;100.00;97707.38;5091168;28;19924;-74
2021/07/28 11:29:29;;;;;;;;;;;;;;;22.12;100.00;97711.91;5105010;27;20340;-77
2021/07/28 11:31:56;;;;;;;;;;;;;;;22.26;100.00;97716.41;5081988;28;20021;-77
2021/07/28 11:34:54;;;;;;;;;;;;;;;21.96;100.00;97735.56;5091386;28;19929;-76
2021/07/28 11:37:39;;;;;;;;;;;;;;;21.64;100.00;97730.94;5056424;28;20292;-77
2021/07/28 11:40:06;;;;;;;;;;;;;;;21.76;100.00;97738.88;5084839;28;20303;-79
2021/07/28 11:42:33;;;;;;;;;;;;;;;21.08;100.00;97761.84;5085490;28;20434;-76
2021/07/28 11:45:00;;;;;;;;;;;;;;;20.59;100.00;97759.97;5082926;28;19925;-77
2021/07/28 11:47:28;;;;;;;;;;;;;;;19.75;100.00;97783.34;5085927;28;20383;-76
2021/07/28 11:50:02;;;;;;;;;;;;;;;19.65;100.00;97796.97;5085892;28;19955;-77
2021/07/28 11:52:32;;;;;;;;;;;;;;;18.55;100.00;97803.09;5086834;28;19955;-77
2021/07/28 11:54:58;;;;;;;;;;;;;;;18.47;100.00;97806.91;5085378;28;19924;-77
2021/07/28 11:57:26;;;;;;;;;;;;;;;18.78;100.00;97809.63;5087659;28;20306;-77
2021/07/28 12:00:13;;;;;;;;;;;;;;;18.66;100.00;97814.47;5089387;28;19924;-76
2021/07/28 12:02:40;;;;;;;;;;;;;;;18.41;100.00;97821.03;5096325;28;19933;-76
2021/07/28 12:05:07;;;;;;;;;;;;;;;18.81;100.00;97825.59;5087538;28;19924;-77
2021/07/28 12:07:34;;;;;;;;;;;;;;;19.01;100.00;97823.34;5070704;28;20565;-77
2021/07/28 12:10:04;;;;;;;;;;;;;;;18.93;100.00;97810.19;5087354;28;19925;-77
2021/07/28 12:12:31;;;;;;;;;;;;;;;18.99;100.00;97820.25;5068554;28;19929;-76
2021/07/28 12:15:11;;;;;;;;;;;;;;;19.03;100.00;97828.50;5088040;28;19932;-77
2021/07/28 12:17:50;;;;;;;;;;;;;;;18.20;100.00;97830.91;5087435;28;19977;-76
2021/07/28 12:20:17;;;;;;;;;;;;;;;17.31;100.00;97820.84;5089072;28;19924;-76
2021/07/28 12:22:44;;;;;;;;;;;;;;;17.81;100.00;97822.13;5088996;28;20351;-76
2021/07/28 12:25:11;;;;;;;;;;;;;;;18.27;100.00;97821.16;5088356;28;19955;-77
2021/07/28 12:27:55;;;;;;;;;;;;;;;18.53;100.00;97824.69;5093970;28;19936;-77
2021/07/28 12:30:31;;;;;;;;;;;;;;;19.14;100.00;97823.66;5091016;28;19930;-77
2021/07/28 12:33:00;;;;;;;;;;;;;;;19.78;100.00;97810.63;5100952;28;21061;-77
2021/07/28 12:35:32;;;;;;;;;;;;;;;20.32;100.00;97797.72;5109400;28;20394;-77
2021/07/28 12:38:19;;;;;;;;;;;;;;;20.96;100.00;97786.66;5103384;28;20023;-78
2021/07/28 12:41:03;;;;;;;;;;;;;;;21.00;100.00;97778.66;5063960;28;19930;-77
2021/07/28 12:43:36;;;;;;;;;;;;;;;21.30;100.00;97773.84;5081601;28;20012;-77
2021/07/28 12:46:04;;;;;;;;;;;;;;;21.56;100.00;97781.13;5058429;28;19931;-78
2021/07/28 12:48:33;;;;;;;;;;;;;;;21.45;100.00;97779.16;5087960;28;20290;-78
2021/07/28 12:51:02;;;;;;;;;;;;;;;20.78;100.00;97780.81;5096186;28;19932;-78
2021/07/28 12:53:30;;;;;;;;;;;;;;;21.28;100.00;97778.50;5085974;28;19924;-78